There are multiple Weather-warnings   Click here for more information


Meteo18 Weather Cam more information Meteo18 Weather Cam


warning for Thunderstorms more information blitzortung!


Rain radar more information rain snow radar


Visit our other weather sites:

Template documentation
and downloads

And another site



Weather Underground History page Text

Daily Summary for July 9, 2016 Units:  Metric    English   Both
« Previous Day
Next Day »
Daily Weekly Monthly Yearly Custom
  High: Low: Average:
Temperature: 30.9 °C 14.0 °C 22.8 °C
Dew Point: 18.5 °C 12.9 °C 15.6 °C
Humidity: 95 % 39 % 67 %
Wind Speed: 8.0 km/h 0.0 km/h 0.5 km/h
Wind Gust: 9.7 km/h - -
Wind:- - SE
Pressure: 1022.9 hPa 1017.2 hPa -
Precipitation: 0.0 mm    
Historical Graphs
 
 
Tabular Data for July 9, 2016
Time Temperature Dew Point Pressure Wind Wind Speed Wind Gust Humidity Rainfall Rate (Hourly)
00:02 17.9 °C 14.2 °C 1021.2 hPa Calm   1.6 km/h 79 % 0.0 mm
00:07 18.2 °C 14.3 °C 1021.2 hPa Calm   1.6 km/h 78 % 0.0 mm
00:12 18.3 °C 14.2 °C 1021.2 hPa Calm   1.6 km/h 77 % 0.0 mm
00:17 18.4 °C 14.3 °C 1021.2 hPa Calm     77 % 0.0 mm
00:22 18.4 °C 14.3 °C 1021.6 hPa Calm     77 % 0.0 mm
00:27 18.5 °C 14.2 °C 1021.6 hPa Calm     76 % 0.0 mm
00:32 18.8 °C 14.1 °C 1021.6 hPa Calm   4.8 km/h 74 % 0.0 mm
00:42 19.4 °C 14.0 °C 1021.6 hPa Calm   4.8 km/h 71 % 0.0 mm
00:47 19.4 °C 14.0 °C 1021.6 hPa Calm   4.8 km/h 71 % 0.0 mm
00:57 19.4 °C 13.8 °C 1021.6 hPa Calm   3.2 km/h 70 % 0.0 mm
01:07 19.4 °C 13.8 °C 1021.6 hPa Calm   4.8 km/h 70 % 0.0 mm
01:17 19.3 °C 13.7 °C 1021.6 hPa Calm   4.8 km/h 70 % 0.0 mm
01:22 19.3 °C 13.7 °C 1021.6 hPa NE 1.6 km/h 3.2 km/h 70 % 0.0 mm
01:27 19.3 °C 13.7 °C 1021.6 hPa ENE 3.2 km/h 6.4 km/h 70 % 0.0 mm
01:32 19.2 °C 13.6 °C 1021.6 hPa ENE 1.6 km/h 6.4 km/h 70 % 0.0 mm
01:37 19.2 °C 13.6 °C 1021.6 hPa Calm   6.4 km/h 70 % 0.0 mm
01:42 19.1 °C 13.5 °C 1021.6 hPa ENE 1.6 km/h 4.8 km/h 70 % 0.0 mm
01:47 19.2 °C 13.6 °C 1021.6 hPa Calm   3.2 km/h 70 % 0.0 mm
01:52 19.1 °C 13.5 °C 1021.6 hPa Calm   6.4 km/h 70 % 0.0 mm
01:57 19.2 °C 13.6 °C 1021.6 hPa Calm   8.0 km/h 70 % 0.0 mm
02:02 19.1 °C 13.7 °C 1021.6 hPa Calm   8.0 km/h 71 % 0.0 mm
02:07 18.9 °C 13.5 °C 1021.6 hPa Calm   8.0 km/h 71 % 0.0 mm
02:12 18.9 °C 13.5 °C 1021.6 hPa ENE 1.6 km/h 8.0 km/h 71 % 0.0 mm
02:17 18.8 °C 13.6 °C 1021.6 hPa Calm   6.4 km/h 72 % 0.0 mm
02:22 18.7 °C 13.8 °C 1021.6 hPa ENE 3.2 km/h 6.4 km/h 73 % 0.0 mm
02:27 18.6 °C 13.7 °C 1021.6 hPa Calm   4.8 km/h 73 % 0.0 mm
02:32 18.4 °C 13.7 °C 1021.6 hPa Calm   4.8 km/h 74 % 0.0 mm
02:37 18.3 °C 13.8 °C 1021.6 hPa NE 1.6 km/h 4.8 km/h 75 % 0.0 mm
02:42 18.1 °C 13.8 °C 1021.6 hPa Calm   4.8 km/h 76 % 0.0 mm
02:47 17.9 °C 13.6 °C 1021.6 hPa Calm   3.2 km/h 76 % 0.0 mm
02:52 17.8 °C 13.7 °C 1021.6 hPa Calm   3.2 km/h 77 % 0.0 mm
02:57 17.7 °C 13.6 °C 1021.6 hPa Calm   4.8 km/h 77 % 0.0 mm
03:02 17.6 °C 13.7 °C 1021.6 hPa Calm   4.8 km/h 78 % 0.0 mm
03:07 17.3 °C 13.6 °C 1021.6 hPa Calm   1.6 km/h 79 % 0.0 mm
03:12 17.3 °C 13.8 °C 1021.6 hPa Calm   1.6 km/h 80 % 0.0 mm
03:17 17.2 °C 13.7 °C 1021.6 hPa NE 1.6 km/h 6.4 km/h 80 % 0.0 mm
03:22 17.1 °C 13.8 °C 1021.6 hPa Calm   6.4 km/h 81 % 0.0 mm
03:27 17.1 °C 14.0 °C 1021.6 hPa Calm   3.2 km/h 82 % 0.0 mm
03:32 16.9 °C 13.8 °C 1021.6 hPa Calm   3.2 km/h 82 % 0.0 mm
03:37 16.8 °C 13.7 °C 1021.6 hPa Calm   1.6 km/h 82 % 0.0 mm
03:42 16.7 °C 13.8 °C 1021.6 hPa Calm   1.6 km/h 83 % 0.0 mm
03:47 16.5 °C 13.6 °C 1021.6 hPa Calm     83 % 0.0 mm
03:52 16.3 °C 13.6 °C 1021.6 hPa Calm     84 % 0.0 mm
04:02 16.1 °C 13.8 °C 1021.6 hPa Calm     86 % 0.0 mm
04:07 15.9 °C 13.6 °C 1021.6 hPa Calm     86 % 0.0 mm
04:12 15.9 °C 13.9 °C 1021.6 hPa NE 1.6 km/h 3.2 km/h 88 % 0.0 mm
04:17 16.3 °C 14.3 °C 1021.6 hPa Calm   3.2 km/h 88 % 0.0 mm
04:22 16.4 °C 14.2 °C 1021.6 hPa NE 1.6 km/h 3.2 km/h 87 % 0.0 mm
04:27 16.4 °C 14.1 °C 1021.6 hPa Calm   3.2 km/h 86 % 0.0 mm
04:32 16.3 °C 14.0 °C 1021.6 hPa Calm   3.2 km/h 86 % 0.0 mm
04:37 16.2 °C 14.0 °C 1021.6 hPa Calm   1.6 km/h 87 % 0.0 mm
04:42 16.1 °C 13.9 °C 1021.6 hPa Calm   1.6 km/h 87 % 0.0 mm
04:47 15.9 °C 13.9 °C 1021.6 hPa Calm   1.6 km/h 88 % 0.0 mm
04:52 15.8 °C 13.8 °C 1021.6 hPa Calm   1.6 km/h 88 % 0.0 mm
04:57 15.6 °C 13.6 °C 1021.6 hPa Calm   1.6 km/h 88 % 0.0 mm
05:02 15.4 °C 13.6 °C 1021.6 hPa Calm   3.2 km/h 89 % 0.0 mm
05:12 15.2 °C 13.6 °C 1021.6 hPa Calm   1.6 km/h 90 % 0.0 mm
05:17 15.2 °C 13.7 °C 1021.6 hPa Calm   1.6 km/h 91 % 0.0 mm
05:22 15.1 °C 13.5 °C 1021.6 hPa Calm   1.6 km/h 90 % 0.0 mm
05:27 14.9 °C 13.4 °C 1021.6 hPa Calm     91 % 0.0 mm
05:32 14.8 °C 13.3 °C 1021.6 hPa Calm     91 % 0.0 mm
05:37 14.8 °C 13.3 °C 1021.6 hPa Calm     91 % 0.0 mm
05:42 14.8 °C 13.5 °C 1021.6 hPa Calm   1.6 km/h 92 % 0.0 mm
05:47 14.8 °C 13.5 °C 1021.6 hPa Calm   1.6 km/h 92 % 0.0 mm
05:52 14.7 °C 13.4 °C 1021.6 hPa Calm   1.6 km/h 92 % 0.0 mm
05:57 14.6 °C 13.3 °C 1021.6 hPa Calm     92 % 0.0 mm
06:02 14.5 °C 13.2 °C 1021.9 hPa Calm     92 % 0.0 mm
06:12 14.3 °C 13.0 °C 1021.9 hPa Calm     92 % 0.0 mm
06:17 14.2 °C 12.9 °C 1021.9 hPa Calm     92 % 0.0 mm
06:27 14.0 °C 12.9 °C 1021.9 hPa Calm     93 % 0.0 mm
06:32 14.0 °C 12.9 °C 1021.9 hPa Calm     93 % 0.0 mm
06:37 14.1 °C 13.1 °C 1022.2 hPa Calm     94 % 0.0 mm
06:42 14.2 °C 13.2 °C 1022.2 hPa Calm     94 % 0.0 mm
06:47 14.2 °C 13.2 °C 1022.2 hPa Calm     94 % 0.0 mm
06:52 14.2 °C 13.2 °C 1022.2 hPa Calm     94 % 0.0 mm
06:57 14.3 °C 13.3 °C 1022.2 hPa Calm     94 % 0.0 mm
07:02 14.3 °C 13.3 °C 1022.2 hPa Calm     94 % 0.0 mm
07:07 14.3 °C 13.3 °C 1022.2 hPa Calm     94 % 0.0 mm
07:12 14.3 °C 13.3 °C 1022.2 hPa Calm     94 % 0.0 mm
07:17 14.4 °C 13.6 °C 1022.2 hPa Calm     95 % 0.0 mm
07:27 14.8 °C 14.0 °C 1022.2 hPa Calm     95 % 0.0 mm
07:32 14.9 °C 14.1 °C 1022.2 hPa Calm     95 % 0.0 mm
07:37 15.0 °C 14.2 °C 1022.2 hPa Calm     95 % 0.0 mm
07:42 15.1 °C 14.3 °C 1022.2 hPa Calm     95 % 0.0 mm
07:47 15.3 °C 14.5 °C 1022.2 hPa Calm     95 % 0.0 mm
07:52 15.4 °C 14.6 °C 1022.2 hPa Calm     95 % 0.0 mm
07:57 15.7 °C 14.9 °C 1022.2 hPa Calm     95 % 0.0 mm
08:02 16.1 °C 15.0 °C 1022.2 hPa Calm     93 % 0.0 mm
08:12 16.9 °C 15.1 °C 1022.6 hPa Calm     89 % 0.0 mm
08:17 17.3 °C 15.1 °C 1022.6 hPa Calm     87 % 0.0 mm
08:22 17.6 °C 15.2 °C 1022.6 hPa Calm     86 % 0.0 mm
08:27 17.8 °C 15.2 °C 1022.6 hPa Calm     85 % 0.0 mm
08:32 18.2 °C 15.3 °C 1022.6 hPa Calm   3.2 km/h 83 % 0.0 mm
08:37 18.6 °C 15.5 °C 1022.6 hPa Calm   3.2 km/h 82 % 0.0 mm
08:42 18.8 °C 15.3 °C 1022.6 hPa Calm   1.6 km/h 80 % 0.0 mm
08:52 19.3 °C 15.2 °C 1022.6 hPa Calm   3.2 km/h 77 % 0.0 mm
08:57 19.6 °C 15.7 °C 1022.6 hPa Calm   3.2 km/h 78 % 0.0 mm
09:02 19.8 °C 15.4 °C 1022.6 hPa Calm   3.2 km/h 76 % 0.0 mm
09:07 20.2 °C 15.6 °C 1022.9 hPa Calm   3.2 km/h 75 % 0.0 mm
09:12 20.6 °C 15.6 °C 1022.6 hPa East 4.8 km/h 4.8 km/h 73 % 0.0 mm
09:17 20.8 °C 15.6 °C 1022.6 hPa NE 3.2 km/h 6.4 km/h 72 % 0.0 mm
09:22 21.2 °C 15.7 °C 1022.6 hPa SE 1.6 km/h 6.4 km/h 71 % 0.0 mm
09:27 21.5 °C 15.8 °C 1022.6 hPa East 4.8 km/h 6.4 km/h 70 % 0.0 mm
09:32 21.9 °C 16.0 °C 1022.6 hPa ENE 3.2 km/h 6.4 km/h 69 % 0.0 mm
09:37 22.1 °C 15.9 °C 1022.6 hPa ENE 1.6 km/h 8.0 km/h 68 % 0.0 mm
09:42 22.2 °C 16.2 °C 1022.6 hPa Calm   8.0 km/h 69 % 0.0 mm
09:52 22.7 °C 16.3 °C 1022.2 hPa Calm   8.0 km/h 67 % 0.0 mm
09:57 23.1 °C 16.4 °C 1022.2 hPa Calm   8.0 km/h 66 % 0.0 mm
10:02 23.4 °C 16.4 °C 1022.2 hPa Calm   8.0 km/h 65 % 0.0 mm
10:07 23.9 °C 16.9 °C 1022.2 hPa Calm   6.4 km/h 65 % 0.0 mm
10:12 23.9 °C 16.2 °C 1022.2 hPa Calm   3.2 km/h 62 % 0.0 mm
10:17 24.2 °C 16.7 °C 1022.2 hPa ENE 1.6 km/h 4.8 km/h 63 % 0.0 mm
10:22 24.2 °C 17.2 °C 1022.2 hPa Calm   4.8 km/h 65 % 0.0 mm
10:27 24.4 °C 16.1 °C 1022.2 hPa North 1.6 km/h 3.2 km/h 60 % 0.0 mm
10:32 24.2 °C 16.2 °C 1022.2 hPa Calm   4.8 km/h 61 % 0.0 mm
10:37 24.5 °C 17.0 °C 1022.2 hPa Calm   4.8 km/h 63 % 0.0 mm
10:42 24.8 °C 16.2 °C 1022.2 hPa Calm   4.8 km/h 59 % 0.0 mm
10:47 24.9 °C 16.3 °C 1022.2 hPa Calm   3.2 km/h 59 % 0.0 mm
10:52 25.0 °C 16.2 °C 1022.2 hPa Calm   3.2 km/h 58 % 0.0 mm
10:57 25.2 °C 16.1 °C 1022.2 hPa Calm   3.2 km/h 57 % 0.0 mm
11:02 25.1 °C 16.3 °C 1022.2 hPa West 1.6 km/h 3.2 km/h 58 % 0.0 mm
11:07 24.8 °C 16.0 °C 1022.2 hPa Calm   3.2 km/h 58 % 0.0 mm
11:12 25.1 °C 16.3 °C 1022.2 hPa Calm   4.8 km/h 58 % 0.0 mm
11:17 25.3 °C 16.4 °C 1021.9 hPa Calm   4.8 km/h 58 % 0.0 mm
11:22 25.3 °C 16.4 °C 1021.9 hPa WSW 4.8 km/h 4.8 km/h 58 % 0.0 mm
11:27 25.3 °C 16.4 °C 1021.9 hPa Calm   4.8 km/h 58 % 0.0 mm
11:32 25.8 °C 16.6 °C 1021.9 hPa Calm   4.8 km/h 57 % 0.0 mm
11:37 26.0 °C 16.5 °C 1021.9 hPa NE 4.8 km/h 4.8 km/h 56 % 0.0 mm
11:42 25.7 °C 16.0 °C 1021.9 hPa Calm   4.8 km/h 55 % 0.0 mm
11:47 26.1 °C 16.9 °C 1022.2 hPa Calm   4.8 km/h 57 % 0.0 mm
11:52 26.3 °C 16.5 °C 1021.9 hPa Calm   4.8 km/h 55 % 0.0 mm
11:57 26.6 °C 16.2 °C 1021.9 hPa Calm   3.2 km/h 53 % 0.0 mm
12:02 26.7 °C 16.0 °C 1021.9 hPa Calm   3.2 km/h 52 % 0.0 mm
12:07 27.1 °C 17.0 °C 1021.9 hPa Calm   3.2 km/h 54 % 0.0 mm
12:12 27.4 °C 18.1 °C 1021.9 hPa Calm   3.2 km/h 57 % 0.0 mm
12:17 27.9 °C 17.4 °C 1021.9 hPa Calm   3.2 km/h 53 % 0.0 mm
12:22 28.1 °C 18.5 °C 1021.9 hPa Calm   3.2 km/h 56 % 0.0 mm
12:27 27.6 °C 16.9 °C 1021.9 hPa East 1.6 km/h 6.4 km/h 52 % 0.0 mm
12:32 27.1 °C 16.7 °C 1021.6 hPa NE 3.2 km/h 6.4 km/h 53 % 0.0 mm
12:42 26.7 °C 16.9 °C 1021.6 hPa Calm   6.4 km/h 55 % 0.0 mm
12:47 27.4 °C 17.0 °C 1021.6 hPa SW 3.2 km/h 6.4 km/h 53 % 0.0 mm
12:52 27.7 °C 16.9 °C 1021.6 hPa Calm   6.4 km/h 52 % 0.0 mm
12:57 27.2 °C 15.9 °C 1021.6 hPa Calm   6.4 km/h 50 % 0.0 mm
13:02 27.0 °C 16.3 °C 1021.6 hPa WSW 3.2 km/h 6.4 km/h 52 % 0.0 mm
13:07 27.5 °C 16.1 °C 1021.6 hPa Calm   6.4 km/h 50 % 0.0 mm
13:12 27.9 °C 16.2 °C 1021.6 hPa WSW 3.2 km/h 4.8 km/h 49 % 0.0 mm
13:17 27.2 °C 15.6 °C 1021.6 hPa Calm   9.7 km/h 49 % 0.0 mm
13:22 26.6 °C 15.9 °C 1021.6 hPa Calm   9.7 km/h 52 % 0.0 mm
13:27 26.8 °C 16.4 °C 1021.6 hPa Calm   6.4 km/h 53 % 0.0 mm
13:32 26.9 °C 17.4 °C 1021.2 hPa Calm   4.8 km/h 56 % 0.0 mm
13:37 27.4 °C 16.1 °C 1021.2 hPa Calm   4.8 km/h 50 % 0.0 mm
13:42 27.7 °C 16.6 °C 1021.2 hPa Calm   4.8 km/h 51 % 0.0 mm
13:47 27.9 °C 15.9 °C 1021.2 hPa Calm   6.4 km/h 48 % 0.0 mm
13:57 28.7 °C 16.6 °C 1020.9 hPa WSW 3.2 km/h 6.4 km/h 48 % 0.0 mm
14:02 28.9 °C 16.8 °C 1020.9 hPa West 3.2 km/h 6.4 km/h 48 % 0.0 mm
14:07 29.0 °C 16.2 °C 1020.9 hPa Calm   4.8 km/h 46 % 0.0 mm
14:12 29.2 °C 16.7 °C 1020.9 hPa Calm   4.8 km/h 47 % 0.0 mm
14:17 29.7 °C 17.5 °C 1020.5 hPa WSW 1.6 km/h 4.8 km/h 48 % 0.0 mm
14:22 29.6 °C 16.4 °C 1020.5 hPa ENE 1.6 km/h 3.2 km/h 45 % 0.0 mm
14:27 29.8 °C 17.6 °C 1020.5 hPa Calm   3.2 km/h 48 % 0.0 mm
14:32 29.7 °C 16.1 °C 1020.5 hPa SW 1.6 km/h 4.8 km/h 44 % 0.0 mm
14:37 29.7 °C 17.8 °C 1020.5 hPa WSW 1.6 km/h 6.4 km/h 49 % 0.0 mm
14:42 29.6 °C 17.1 °C 1020.5 hPa WSW 3.2 km/h 6.4 km/h 47 % 0.0 mm
14:47 29.4 °C 15.5 °C 1020.5 hPa Calm   6.4 km/h 43 % 0.0 mm
14:52 29.4 °C 15.9 °C 1020.5 hPa Calm   6.4 km/h 44 % 0.0 mm
14:57 29.3 °C 15.4 °C 1020.2 hPa Calm   6.4 km/h 43 % 0.0 mm
15:02 29.4 °C 17.2 °C 1020.2 hPa Calm   4.8 km/h 48 % 0.0 mm
15:07 29.4 °C 17.2 °C 1020.2 hPa NE 8.0 km/h 8.0 km/h 48 % 0.0 mm
15:12 28.9 °C 16.8 °C 1020.2 hPa Calm   9.7 km/h 48 % 0.0 mm
15:17 29.4 °C 16.2 °C 1020.2 hPa SW 3.2 km/h 9.7 km/h 45 % 0.0 mm
15:22 29.6 °C 16.4 °C 1020.2 hPa Calm   9.7 km/h 45 % 0.0 mm
15:27 29.7 °C 15.8 °C 1019.9 hPa Calm   8.0 km/h 43 % 0.0 mm
15:32 30.1 °C 15.8 °C 1019.9 hPa SW 3.2 km/h 8.0 km/h 42 % 0.0 mm
15:37 30.1 °C 16.1 °C 1019.9 hPa WSW 1.6 km/h 8.0 km/h 43 % 0.0 mm
15:42 30.2 °C 16.6 °C 1019.9 hPa Calm   8.0 km/h 44 % 0.0 mm
15:52 30.6 °C 16.2 °C 1019.9 hPa Calm   4.8 km/h 42 % 0.0 mm
15:57 30.3 °C 15.2 °C 1019.9 hPa Calm   6.4 km/h 40 % 0.0 mm
16:02 30.2 °C 16.6 °C 1019.9 hPa Calm   6.4 km/h 44 % 0.0 mm
16:07 30.3 °C 16.3 °C 1019.9 hPa Calm   6.4 km/h 43 % 0.0 mm
16:12 30.3 °C 17.4 °C 1019.9 hPa SW 1.6 km/h 6.4 km/h 46 % 0.0 mm
16:17 30.4 °C 16.8 °C 1019.5 hPa NNE 1.6 km/h 8.0 km/h 44 % 0.0 mm
16:22 30.6 °C 15.8 °C 1019.5 hPa ENE 3.2 km/h 8.0 km/h 41 % 0.0 mm
16:27 30.3 °C 16.3 °C 1019.5 hPa Calm   8.0 km/h 43 % 0.0 mm
16:32 30.9 °C 17.2 °C 1019.5 hPa Calm   8.0 km/h 44 % 0.0 mm
16:37 30.9 °C 15.3 °C 1019.5 hPa NE 1.6 km/h 8.0 km/h 39 % 0.0 mm
16:42 30.3 °C 15.2 °C 1019.2 hPa Calm   8.0 km/h 40 % 0.0 mm
16:47 29.9 °C 17.0 °C 1019.2 hPa Calm   8.0 km/h 46 % 0.0 mm
16:52 30.2 °C 15.9 °C 1019.2 hPa Calm   8.0 km/h 42 % 0.0 mm
16:57 30.4 °C 16.8 °C 1019.2 hPa East 3.2 km/h 6.4 km/h 44 % 0.0 mm
17:02 30.1 °C 16.5 °C 1019.2 hPa NE 4.8 km/h 6.4 km/h 44 % 0.0 mm
17:07 29.9 °C 16.3 °C 1019.2 hPa Calm   8.0 km/h 44 % 0.0 mm
17:12 29.8 °C 16.6 °C 1019.2 hPa Calm   8.0 km/h 45 % 0.0 mm
17:17 30.1 °C 16.1 °C 1018.8 hPa Calm   8.0 km/h 43 % 0.0 mm
17:22 30.7 °C 16.3 °C 1018.8 hPa WSW 4.8 km/h 4.8 km/h 42 % 0.0 mm
17:27 30.8 °C 16.0 °C 1018.8 hPa Calm   6.4 km/h 41 % 0.0 mm
17:32 30.7 °C 15.9 °C 1018.8 hPa WSW 1.6 km/h 6.4 km/h 41 % 0.0 mm
17:37 30.7 °C 15.5 °C 1018.8 hPa SW 1.6 km/h 6.4 km/h 40 % 0.0 mm
17:42 30.8 °C 16.0 °C 1018.8 hPa SW 3.2 km/h 4.8 km/h 41 % 0.0 mm
17:47 30.6 °C 16.2 °C 1018.8 hPa WSW 3.2 km/h 6.4 km/h 42 % 0.0 mm
17:52 30.6 °C 15.8 °C 1018.5 hPa Calm   6.4 km/h 41 % 0.0 mm
17:57 30.8 °C 15.2 °C 1018.5 hPa NE 1.6 km/h 6.4 km/h 39 % 0.0 mm
18:02 30.3 °C 15.2 °C 1018.5 hPa Calm   6.4 km/h 40 % 0.0 mm
18:07 30.3 °C 15.2 °C 1018.5 hPa WSW 3.2 km/h 6.4 km/h 40 % 0.0 mm
18:12 30.4 °C 14.9 °C 1018.5 hPa Calm   6.4 km/h 39 % 0.0 mm
18:17 30.7 °C 15.9 °C 1018.5 hPa Calm   3.2 km/h 41 % 0.0 mm
18:22 30.8 °C 15.6 °C 1018.5 hPa Calm   3.2 km/h 40 % 0.0 mm
18:27 30.7 °C 15.9 °C 1018.2 hPa Calm   3.2 km/h 41 % 0.0 mm
18:32 30.6 °C 15.8 °C 1018.2 hPa NNE 1.6 km/h 3.2 km/h 41 % 0.0 mm
18:42 30.7 °C 15.9 °C 1018.2 hPa SW 1.6 km/h 4.8 km/h 41 % 0.0 mm
18:47 30.7 °C 16.3 °C 1018.2 hPa Calm   4.8 km/h 42 % 0.0 mm
18:52 30.8 °C 15.6 °C 1018.2 hPa Calm   3.2 km/h 40 % 0.0 mm
18:57 30.5 °C 16.1 °C 1017.8 hPa Calm   3.2 km/h 42 % 0.0 mm
19:02 29.8 °C 15.9 °C 1017.8 hPa Calm   1.6 km/h 43 % 0.0 mm
19:07 29.2 °C 16.0 °C 1017.8 hPa Calm   1.6 km/h 45 % 0.0 mm
19:12 28.8 °C 15.3 °C 1017.8 hPa ENE 1.6 km/h 1.6 km/h 44 % 0.0 mm
19:17 28.5 °C 15.8 °C 1017.8 hPa Calm   4.8 km/h 46 % 0.0 mm
19:22 28.3 °C 15.9 °C 1017.8 hPa Calm   4.8 km/h 47 % 0.0 mm
19:27 28.1 °C 16.1 °C 1017.8 hPa Calm   3.2 km/h 48 % 0.0 mm
19:32 27.8 °C 16.1 °C 1017.8 hPa ENE 3.2 km/h 3.2 km/h 49 % 0.0 mm
19:37 27.7 °C 16.0 °C 1017.8 hPa Calm   6.4 km/h 49 % 0.0 mm
19:42 27.6 °C 16.6 °C 1017.5 hPa NE 1.6 km/h 6.4 km/h 51 % 0.0 mm
19:47 27.5 °C 17.4 °C 1017.5 hPa Calm   6.4 km/h 54 % 0.0 mm
19:52 27.3 °C 16.9 °C 1017.5 hPa Calm   6.4 km/h 53 % 0.0 mm
19:57 27.2 °C 16.5 °C 1017.5 hPa Calm   6.4 km/h 52 % 0.0 mm
20:02 27.1 °C 16.4 °C 1017.5 hPa Calm   3.2 km/h 52 % 0.0 mm
20:07 27.0 °C 16.9 °C 1017.5 hPa Calm   3.2 km/h 54 % 0.0 mm
20:12 26.8 °C 17.6 °C 1017.5 hPa Calm   1.6 km/h 57 % 0.0 mm
20:17 26.4 °C 17.2 °C 1017.5 hPa Calm     57 % 0.0 mm
20:22 26.2 °C 16.7 °C 1017.5 hPa Calm     56 % 0.0 mm
20:27 26.1 °C 17.5 °C 1017.5 hPa Calm     59 % 0.0 mm
20:32 25.8 °C 17.2 °C 1017.5 hPa Calm     59 % 0.0 mm
20:37 25.6 °C 17.5 °C 1017.5 hPa Calm     61 % 0.0 mm
20:42 25.3 °C 17.7 °C 1017.5 hPa Calm     63 % 0.0 mm
20:47 25.1 °C 17.6 °C 1017.5 hPa Calm     63 % 0.0 mm
20:52 24.8 °C 17.5 °C 1017.5 hPa Calm     64 % 0.0 mm
20:57 24.5 °C 17.5 °C 1017.2 hPa Calm     65 % 0.0 mm
21:02 24.3 °C 17.8 °C 1017.2 hPa Calm     67 % 0.0 mm
21:07 24.0 °C 18.0 °C 1017.2 hPa Calm     69 % 0.0 mm
21:12 23.7 °C 18.1 °C 1017.2 hPa Calm     71 % 0.0 mm
21:17 23.3 °C 18.2 °C 1017.2 hPa Calm     73 % 0.0 mm
21:22 22.9 °C 17.8 °C 1017.2 hPa Calm     73 % 0.0 mm
21:27 22.7 °C 17.8 °C 1017.2 hPa Calm     74 % 0.0 mm
21:32 22.6 °C 17.7 °C 1017.2 hPa Calm     74 % 0.0 mm
21:37 22.3 °C 17.7 °C 1017.2 hPa Calm     75 % 0.0 mm
21:42 21.9 °C 17.7 °C 1017.2 hPa Calm     77 % 0.0 mm
21:47 21.6 °C 17.4 °C 1017.2 hPa Calm     77 % 0.0 mm
21:52 21.6 °C 17.4 °C 1017.2 hPa Calm     77 % 0.0 mm
21:57 21.7 °C 17.3 °C 1017.2 hPa Calm     76 % 0.0 mm
22:02 21.6 °C 17.4 °C 1017.2 hPa Calm     77 % 0.0 mm
22:07 21.2 °C 17.2 °C 1017.2 hPa Calm     78 % 0.0 mm
22:12 20.9 °C 17.1 °C 1017.2 hPa Calm     79 % 0.0 mm
22:17 20.6 °C 17.0 °C 1017.2 hPa Calm     80 % 0.0 mm
22:22 20.4 °C 16.8 °C 1017.2 hPa Calm     80 % 0.0 mm
22:32 20.1 °C 16.7 °C 1017.2 hPa Calm     81 % 0.0 mm
22:37 19.9 °C 16.7 °C 1017.2 hPa Calm     82 % 0.0 mm
22:42 19.8 °C 16.8 °C 1017.2 hPa Calm     83 % 0.0 mm
22:47 19.7 °C 16.7 °C 1017.2 hPa Calm     83 % 0.0 mm
22:52 19.6 °C 16.6 °C 1017.2 hPa Calm     83 % 0.0 mm
22:57 19.5 °C 16.5 °C 1017.2 hPa Calm     83 % 0.0 mm
23:02 19.3 °C 16.5 °C 1017.2 hPa Calm     84 % 0.0 mm
23:07 19.2 °C 16.4 °C 1017.2 hPa Calm     84 % 0.0 mm
23:12 19.1 °C 16.5 °C 1017.2 hPa Calm     85 % 0.0 mm
23:17 19.1 °C 16.5 °C 1017.2 hPa Calm     85 % 0.0 mm
23:22 19.0 °C 16.6 °C 1017.2 hPa Calm     86 % 0.0 mm
23:27 18.9 °C 16.5 °C 1017.2 hPa Calm     86 % 0.0 mm
23:32 18.8 °C 16.4 °C 1017.2 hPa Calm     86 % 0.0 mm
23:37 18.7 °C 16.3 °C 1017.2 hPa Calm     86 % 0.0 mm
23:42 18.5 °C 16.3 °C 1017.2 hPa Calm     87 % 0.0 mm
23:52 18.2 °C 16.2 °C 1017.2 hPa Calm     88 % 0.0 mm
23:57 18.1 °C 16.1 °C 1017.2 hPa Calm     88 % 0.0 mm
Meteo18
Compliments of Weather Underground - 4 mb

Script developed by  Jim McMurry - jmcmurry@mwt.net Adapted for the template by  Wim van der Kuil - Leuven-Template.eu

You find our weather info also at:

European Weather Network

Weather Underground

Equipment we use:

Weather-station
Davis Vue

Weather-program
Meteohub

Weather-server
Raspberry PI 2 B+

Provider
1 and 1

Davis Vue

Meteohub

Raspberry PI 2 B+

1 and 1